sensor_id;sensor_type;location;lat;lon;timestamp;temperature;humidity
15003;DHT22;7597;53.590;10.020;2022-12-18T00:00:20;-4.30;1.00
15003;DHT22;7597;53.590;10.020;2022-12-18T00:02:48;-4.30;1.00
15003;DHT22;7597;53.590;10.020;2022-12-18T00:05:15;-4.30;1.00
15003;DHT22;7597;53.590;10.020;2022-12-18T00:07:41;-4.40;1.00
15003;DHT22;7597;53.590;10.020;2022-12-18T00:10:09;-4.40;1.00
15003;DHT22;7597;53.590;10.020;2022-12-18T00:12:35;-4.40;1.00
15003;DHT22;7597;53.590;10.020;2022-12-18T00:15:03;-4.40;1.00
15003;DHT22;7597;53.590;10.020;2022-12-18T00:17:29;-4.40;1.00
15003;DHT22;7597;53.590;10.020;2022-12-18T00:19:56;-4.50;1.00
15003;DHT22;7597;53.590;10.020;2022-12-18T00:22:23;-4.50;1.00
15003;DHT22;7597;53.590;10.020;2022-12-18T00:24:49;-4.60;1.00
15003;DHT22;7597;53.590;10.020;2022-12-18T00:27:16;-4.50;1.00
15003;DHT22;7597;53.590;10.020;2022-12-18T00:29:43;-4.60;1.00
15003;DHT22;7597;53.590;10.020;2022-12-18T00:32:09;-4.70;1.00
15003;DHT22;7597;53.590;10.020;2022-12-18T00:34:36;-4.70;1.00
15003;DHT22;7597;53.590;10.020;2022-12-18T00:37:03;-4.50;1.00
15003;DHT22;7597;53.590;10.020;2022-12-18T00:39:30;-4.80;1.00
15003;DHT22;7597;53.590;10.020;2022-12-18T00:41:56;-4.70;1.00
15003;DHT22;7597;53.590;10.020;2022-12-18T00:44:28;-4.80;1.00
15003;DHT22;7597;53.590;10.020;2022-12-18T00:46:56;-4.70;1.00
15003;DHT22;7597;53.590;10.020;2022-12-18T00:49:22;-4.70;1.00
15003;DHT22;7597;53.590;10.020;2022-12-18T00:51:49;-4.70;1.00
15003;DHT22;7597;53.590;10.020;2022-12-18T00:54:16;-4.80;1.00
15003;DHT22;7597;53.590;10.020;2022-12-18T00:56:43;-4.80;1.00
15003;DHT22;7597;53.590;10.020;2022-12-18T00:59:09;-4.80;1.00
15003;DHT22;7597;53.590;10.020;2022-12-18T01:01:36;-4.70;1.00
15003;DHT22;7597;53.590;10.020;2022-12-18T01:04:04;-4.30;1.00
15003;DHT22;7597;53.590;10.020;2022-12-18T01:06:30;-4.70;1.00
15003;DHT22;7597;53.590;10.020;2022-12-18T01:08:57;-4.70;1.00
15003;DHT22;7597;53.590;10.020;2022-12-18T01:11:24;-4.70;1.00
15003;DHT22;7597;53.590;10.020;2022-12-18T01:13:51;-4.70;1.00
15003;DHT22;7597;53.590;10.020;2022-12-18T01:16:17;-4.70;1.00
15003;DHT22;7597;53.590;10.020;2022-12-18T01:18:44;-4.50;1.00
15003;DHT22;7597;53.590;10.020;2022-12-18T01:21:11;-4.70;1.00
15003;DHT22;7597;53.590;10.020;2022-12-18T01:23:37;-4.70;1.00
15003;DHT22;7597;53.590;10.020;2022-12-18T01:26:05;-4.80;1.00
15003;DHT22;7597;53.590;10.020;2022-12-18T01:28:30;-4.80;1.00
15003;DHT22;7597;53.590;10.020;2022-12-18T01:30:57;-4.90;1.00
15003;DHT22;7597;53.590;10.020;2022-12-18T01:33:24;-4.90;1.00
15003;DHT22;7597;53.590;10.020;2022-12-18T01:35:50;-5.00;1.00
15003;DHT22;7597;53.590;10.020;2022-12-18T01:38:17;-5.00;1.00
15003;DHT22;7597;53.590;10.020;2022-12-18T01:40:44;-5.00;1.00
15003;DHT22;7597;53.590;10.020;2022-12-18T01:43:10;-5.00;1.00
15003;DHT22;7597;53.590;10.020;2022-12-18T01:45:37;-5.00;1.00
15003;DHT22;7597;53.590;10.020;2022-12-18T01:48:05;-5.10;1.00
15003;DHT22;7597;53.590;10.020;2022-12-18T01:50:32;-5.10;1.00
15003;DHT22;7597;53.590;10.020;2022-12-18T01:53:06;-5.10;1.00
15003;DHT22;7597;53.590;10.020;2022-12-18T01:55:32;-5.10;1.00
15003;DHT22;7597;53.590;10.020;2022-12-18T01:57:58;-5.10;1.00
15003;DHT22;7597;53.590;10.020;2022-12-18T02:00:25;-5.10;1.00
15003;DHT22;7597;53.590;10.020;2022-12-18T02:02:52;-5.00;1.00
15003;DHT22;7597;53.590;10.020;2022-12-18T02:05:25;-5.20;1.00
15003;DHT22;7597;53.590;10.020;2022-12-18T02:08:07;-5.20;1.00
15003;DHT22;7597;53.590;10.020;2022-12-18T02:10:34;-5.20;1.00
15003;DHT22;7597;53.590;10.020;2022-12-18T02:15:36;-5.20;1.00
15003;DHT22;7597;53.590;10.020;2022-12-18T02:18:07;-5.20;1.00
15003;DHT22;7597;53.590;10.020;2022-12-18T02:20:35;-5.20;1.00
15003;DHT22;7597;53.590;10.020;2022-12-18T02:23:28;-5.20;1.00
15003;DHT22;7597;53.590;10.020;2022-12-18T02:26:14;-5.20;1.00
15003;DHT22;7597;53.590;10.020;2022-12-18T02:28:45;-5.30;1.00
15003;DHT22;7597;53.590;10.020;2022-12-18T02:31:11;-5.30;1.00
15003;DHT22;7597;53.590;10.020;2022-12-18T02:33:36;-5.20;1.00
15003;DHT22;7597;53.590;10.020;2022-12-18T02:36:03;-5.30;1.00
15003;DHT22;7597;53.590;10.020;2022-12-18T02:38:29;-5.30;1.00
15003;DHT22;7597;53.590;10.020;2022-12-18T02:40:56;-5.30;1.00
15003;DHT22;7597;53.590;10.020;2022-12-18T02:43:22;-5.40;1.00
15003;DHT22;7597;53.590;10.020;2022-12-18T02:45:52;-5.40;1.00
15003;DHT22;7597;53.590;10.020;2022-12-18T02:48:19;-5.40;1.00
15003;DHT22;7597;53.590;10.020;2022-12-18T02:50:46;-5.30;1.00
15003;DHT22;7597;53.590;10.020;2022-12-18T02:56:12;-5.30;1.00
15003;DHT22;7597;53.590;10.020;2022-12-18T02:58:47;-5.40;1.00
15003;DHT22;7597;53.590;10.020;2022-12-18T03:01:16;-5.40;1.00
15003;DHT22;7597;53.590;10.020;2022-12-18T03:03:46;-5.50;1.00
15003;DHT22;7597;53.590;10.020;2022-12-18T03:06:12;-5.50;1.00
15003;DHT22;7597;53.590;10.020;2022-12-18T03:08:38;-5.50;1.00
15003;DHT22;7597;53.590;10.020;2022-12-18T03:11:05;-5.40;1.00
15003;DHT22;7597;53.590;10.020;2022-12-18T03:13:33;-5.50;1.00
15003;DHT22;7597;53.590;10.020;2022-12-18T03:15:58;-5.50;1.00
15003;DHT22;7597;53.590;10.020;2022-12-18T03:18:27;-5.60;1.00
15003;DHT22;7597;53.590;10.020;2022-12-18T03:20:52;-5.60;1.00
15003;DHT22;7597;53.590;10.020;2022-12-18T03:23:20;-5.60;1.00
15003;DHT22;7597;53.590;10.020;2022-12-18T03:25:45;-5.70;1.00
15003;DHT22;7597;53.590;10.020;2022-12-18T03:28:13;-5.70;1.00
15003;DHT22;7597;53.590;10.020;2022-12-18T03:30:40;-5.60;1.00
15003;DHT22;7597;53.590;10.020;2022-12-18T03:33:08;-5.70;1.00
15003;DHT22;7597;53.590;10.020;2022-12-18T03:35:35;-5.10;1.00
15003;DHT22;7597;53.590;10.020;2022-12-18T03:38:01;-5.70;1.00
15003;DHT22;7597;53.590;10.020;2022-12-18T03:40:30;-5.70;1.00
15003;DHT22;7597;53.590;10.020;2022-12-18T03:42:58;-5.70;1.00
15003;DHT22;7597;53.590;10.020;2022-12-18T03:45:24;-5.70;1.00
15003;DHT22;7597;53.590;10.020;2022-12-18T03:50:45;-5.80;1.00
15003;DHT22;7597;53.590;10.020;2022-12-18T03:53:53;-5.80;1.00
15003;DHT22;7597;53.590;10.020;2022-12-18T03:56:00;-5.80;1.00
15003;DHT22;7597;53.590;10.020;2022-12-18T03:58:28;-5.80;1.00
15003;DHT22;7597;53.590;10.020;2022-12-18T04:00:55;-5.90;1.00
15003;DHT22;7597;53.590;10.020;2022-12-18T04:03:21;-5.90;1.00
15003;DHT22;7597;53.590;10.020;2022-12-18T04:05:48;-5.90;1.00
15003;DHT22;7597;53.590;10.020;2022-12-18T04:08:14;-5.90;1.00
15003;DHT22;7597;53.590;10.020;2022-12-18T04:10:41;-5.40;1.00
15003;DHT22;7597;53.590;10.020;2022-12-18T04:13:08;-6.00;1.00
15003;DHT22;7597;53.590;10.020;2022-12-18T04:15:34;-6.00;1.00
15003;DHT22;7597;53.590;10.020;2022-12-18T04:18:01;-6.00;1.00
15003;DHT22;7597;53.590;10.020;2022-12-18T04:20:27;-6.10;1.00
15003;DHT22;7597;53.590;10.020;2022-12-18T04:22:55;-6.00;1.00
15003;DHT22;7597;53.590;10.020;2022-12-18T04:25:21;-6.10;1.00
15003;DHT22;7597;53.590;10.020;2022-12-18T04:27:48;-6.10;1.00
15003;DHT22;7597;53.590;10.020;2022-12-18T04:30:15;-6.10;1.00
15003;DHT22;7597;53.590;10.020;2022-12-18T04:32:41;-6.30;1.00
15003;DHT22;7597;53.590;10.020;2022-12-18T04:35:08;-6.30;1.00
15003;DHT22;7597;53.590;10.020;2022-12-18T04:37:35;-6.30;1.00
15003;DHT22;7597;53.590;10.020;2022-12-18T04:40:01;-6.30;1.00
15003;DHT22;7597;53.590;10.020;2022-12-18T04:42:28;-6.20;1.00
15003;DHT22;7597;53.590;10.020;2022-12-18T04:44:55;-6.20;1.00
15003;DHT22;7597;53.590;10.020;2022-12-18T04:47:22;-6.20;1.00
15003;DHT22;7597;53.590;10.020;2022-12-18T04:49:49;-6.20;1.00
15003;DHT22;7597;53.590;10.020;2022-12-18T04:52:15;-6.20;1.00
15003;DHT22;7597;53.590;10.020;2022-12-18T04:54:42;-6.20;1.00
15003;DHT22;7597;53.590;10.020;2022-12-18T04:57:09;-6.20;1.00
15003;DHT22;7597;53.590;10.020;2022-12-18T04:59:35;-6.20;1.00
15003;DHT22;7597;53.590;10.020;2022-12-18T05:02:02;-6.30;1.00
15003;DHT22;7597;53.590;10.020;2022-12-18T05:04:28;-6.30;1.00
15003;DHT22;7597;53.590;10.020;2022-12-18T05:06:55;-6.20;1.00
15003;DHT22;7597;53.590;10.020;2022-12-18T05:09:23;-6.20;1.00
15003;DHT22;7597;53.590;10.020;2022-12-18T05:11:49;-6.20;1.00
15003;DHT22;7597;53.590;10.020;2022-12-18T05:14:16;-6.20;1.00
15003;DHT22;7597;53.590;10.020;2022-12-18T05:16:42;-6.20;1.00
15003;DHT22;7597;53.590;10.020;2022-12-18T05:19:09;-6.10;1.00
15003;DHT22;7597;53.590;10.020;2022-12-18T05:21:36;-6.20;1.00
15003;DHT22;7597;53.590;10.020;2022-12-18T05:24:03;-5.70;1.00
15003;DHT22;7597;53.590;10.020;2022-12-18T05:26:30;-6.20;1.00
15003;DHT22;7597;53.590;10.020;2022-12-18T05:28:56;-6.20;1.00
15003;DHT22;7597;53.590;10.020;2022-12-18T05:31:23;-5.70;1.00
15003;DHT22;7597;53.590;10.020;2022-12-18T05:33:50;-6.30;1.00
15003;DHT22;7597;53.590;10.020;2022-12-18T05:36:16;-6.20;1.00
15003;DHT22;7597;53.590;10.020;2022-12-18T05:38:43;-6.30;1.00
15003;DHT22;7597;53.590;10.020;2022-12-18T05:41:10;-6.20;1.00
15003;DHT22;7597;53.590;10.020;2022-12-18T05:43:37;-6.20;1.00
15003;DHT22;7597;53.590;10.020;2022-12-18T05:46:04;-6.30;1.00
15003;DHT22;7597;53.590;10.020;2022-12-18T05:48:31;-6.30;1.00
15003;DHT22;7597;53.590;10.020;2022-12-18T05:51:03;-6.30;1.00
15003;DHT22;7597;53.590;10.020;2022-12-18T05:53:25;-6.30;1.00
15003;DHT22;7597;53.590;10.020;2022-12-18T05:55:51;-6.30;1.00
15003;DHT22;7597;53.590;10.020;2022-12-18T05:58:19;-6.30;1.00
15003;DHT22;7597;53.590;10.020;2022-12-18T06:00:45;-6.30;1.00
15003;DHT22;7597;53.590;10.020;2022-12-18T06:03:12;-6.30;1.00
15003;DHT22;7597;53.590;10.020;2022-12-18T06:05:40;-6.30;1.00
15003;DHT22;7597;53.590;10.020;2022-12-18T06:08:05;-6.30;1.00
15003;DHT22;7597;53.590;10.020;2022-12-18T06:10:32;-6.40;1.00
15003;DHT22;7597;53.590;10.020;2022-12-18T06:12:58;-6.40;1.00
15003;DHT22;7597;53.590;10.020;2022-12-18T06:15:25;-6.40;1.00
15003;DHT22;7597;53.590;10.020;2022-12-18T06:17:52;-6.40;1.00
15003;DHT22;7597;53.590;10.020;2022-12-18T06:20:18;-6.40;1.00
15003;DHT22;7597;53.590;10.020;2022-12-18T06:22:45;-6.40;1.00
15003;DHT22;7597;53.590;10.020;2022-12-18T06:25:11;-6.40;1.00
15003;DHT22;7597;53.590;10.020;2022-12-18T06:27:38;-6.40;1.00
15003;DHT22;7597;53.590;10.020;2022-12-18T06:30:05;-6.40;1.00
15003;DHT22;7597;53.590;10.020;2022-12-18T06:32:32;-6.40;1.00
15003;DHT22;7597;53.590;10.020;2022-12-18T06:34:59;-6.40;1.00
15003;DHT22;7597;53.590;10.020;2022-12-18T06:37:25;-6.40;1.00
15003;DHT22;7597;53.590;10.020;2022-12-18T06:39:53;-6.40;1.00
15003;DHT22;7597;53.590;10.020;2022-12-18T06:42:22;-6.50;1.00
15003;DHT22;7597;53.590;10.020;2022-12-18T06:44:48;-6.50;1.00
15003;DHT22;7597;53.590;10.020;2022-12-18T06:47:15;-6.40;1.00
15003;DHT22;7597;53.590;10.020;2022-12-18T06:49:41;-6.50;1.00
15003;DHT22;7597;53.590;10.020;2022-12-18T06:52:08;-6.50;1.00
15003;DHT22;7597;53.590;10.020;2022-12-18T06:54:35;-6.40;1.00
15003;DHT22;7597;53.590;10.020;2022-12-18T06:57:02;-6.50;1.00
15003;DHT22;7597;53.590;10.020;2022-12-18T06:59:29;-6.50;1.00
15003;DHT22;7597;53.590;10.020;2022-12-18T07:01:55;-6.50;1.00
15003;DHT22;7597;53.590;10.020;2022-12-18T07:04:27;-6.50;1.00
15003;DHT22;7597;53.590;10.020;2022-12-18T07:06:49;-6.50;1.00
15003;DHT22;7597;53.590;10.020;2022-12-18T07:09:17;-6.60;1.00
15003;DHT22;7597;53.590;10.020;2022-12-18T07:11:43;-6.60;1.00
15003;DHT22;7597;53.590;10.020;2022-12-18T07:14:10;-6.50;1.00
15003;DHT22;7597;53.590;10.020;2022-12-18T07:16:37;-6.60;1.00
15003;DHT22;7597;53.590;10.020;2022-12-18T07:19:03;-6.60;1.00
15003;DHT22;7597;53.590;10.020;2022-12-18T07:21:30;-6.70;1.00
15003;DHT22;7597;53.590;10.020;2022-12-18T07:23:57;-6.70;1.00
15003;DHT22;7597;53.590;10.020;2022-12-18T07:26:24;-6.60;1.00
15003;DHT22;7597;53.590;10.020;2022-12-18T07:28:55;-6.70;1.00
15003;DHT22;7597;53.590;10.020;2022-12-18T07:31:18;-6.60;1.00
15003;DHT22;7597;53.590;10.020;2022-12-18T07:33:44;-6.60;1.00
15003;DHT22;7597;53.590;10.020;2022-12-18T07:36:10;-6.50;1.00
15003;DHT22;7597;53.590;10.020;2022-12-18T07:38:37;-6.40;1.00
15003;DHT22;7597;53.590;10.020;2022-12-18T07:41:06;-6.40;1.00
15003;DHT22;7597;53.590;10.020;2022-12-18T07:43:32;-6.40;1.00
15003;DHT22;7597;53.590;10.020;2022-12-18T07:45:58;-6.40;1.00
15003;DHT22;7597;53.590;10.020;2022-12-18T07:48:25;-6.40;1.00
15003;DHT22;7597;53.590;10.020;2022-12-18T07:50:52;-6.30;1.00
15003;DHT22;7597;53.590;10.020;2022-12-18T07:53:18;-6.30;1.00
15003;DHT22;7597;53.590;10.020;2022-12-18T07:55:45;-6.30;1.00
15003;DHT22;7597;53.590;10.020;2022-12-18T07:58:12;-6.20;1.00
15003;DHT22;7597;53.590;10.020;2022-12-18T08:00:38;-6.20;1.00
15003;DHT22;7597;53.590;10.020;2022-12-18T08:03:05;-6.10;1.00
15003;DHT22;7597;53.590;10.020;2022-12-18T08:05:31;-5.90;1.00
15003;DHT22;7597;53.590;10.020;2022-12-18T08:07:59;-5.30;1.00
15003;DHT22;7597;53.590;10.020;2022-12-18T08:10:25;-5.80;1.00
15003;DHT22;7597;53.590;10.020;2022-12-18T08:12:53;-5.80;1.00
15003;DHT22;7597;53.590;10.020;2022-12-18T08:15:20;-5.80;1.00
15003;DHT22;7597;53.590;10.020;2022-12-18T08:17:46;-5.70;1.00
15003;DHT22;7597;53.590;10.020;2022-12-18T08:20:13;-5.70;1.00
15003;DHT22;7597;53.590;10.020;2022-12-18T08:22:40;-5.70;1.00
15003;DHT22;7597;53.590;10.020;2022-12-18T08:25:07;-5.60;1.00
15003;DHT22;7597;53.590;10.020;2022-12-18T08:27:33;-5.50;1.00
15003;DHT22;7597;53.590;10.020;2022-12-18T08:30:00;-5.50;1.00
15003;DHT22;7597;53.590;10.020;2022-12-18T08:32:27;-5.50;1.00
15003;DHT22;7597;53.590;10.020;2022-12-18T08:34:53;-5.50;1.00
15003;DHT22;7597;53.590;10.020;2022-12-18T08:37:20;-5.50;1.00
15003;DHT22;7597;53.590;10.020;2022-12-18T08:39:47;-5.30;1.00
15003;DHT22;7597;53.590;10.020;2022-12-18T08:42:14;-4.50;1.00
15003;DHT22;7597;53.590;10.020;2022-12-18T08:44:46;-4.50;1.00
15003;DHT22;7597;53.590;10.020;2022-12-18T08:47:13;-3.90;1.00
15003;DHT22;7597;53.590;10.020;2022-12-18T08:49:40;-3.50;1.00
15003;DHT22;7597;53.590;10.020;2022-12-18T08:52:07;-2.50;1.00
15003;DHT22;7597;53.590;10.020;2022-12-18T08:54:35;-2.40;1.00
15003;DHT22;7597;53.590;10.020;2022-12-18T08:57:02;-1.60;1.00
15003;DHT22;7597;53.590;10.020;2022-12-18T08:59:29;-1.60;1.00
15003;DHT22;7597;53.590;10.020;2022-12-18T09:01:55;-0.80;1.00
15003;DHT22;7597;53.590;10.020;2022-12-18T09:04:22;-0.40;1.00
15003;DHT22;7597;53.590;10.020;2022-12-18T09:06:48;-0.20;1.00
15003;DHT22;7597;53.590;10.020;2022-12-18T09:09:15;0.20;1.00
15003;DHT22;7597;53.590;10.020;2022-12-18T09:11:42;0.60;1.00
15003;DHT22;7597;53.590;10.020;2022-12-18T09:14:09;0.70;1.00
15003;DHT22;7597;53.590;10.020;2022-12-18T09:16:35;0.80;1.00
15003;DHT22;7597;53.590;10.020;2022-12-18T09:19:02;1.20;1.00
15003;DHT22;7597;53.590;10.020;2022-12-18T09:21:29;1.10;1.00
15003;DHT22;7597;53.590;10.020;2022-12-18T09:23:55;1.30;1.00
15003;DHT22;7597;53.590;10.020;2022-12-18T09:26:22;0.40;1.00
15003;DHT22;7597;53.590;10.020;2022-12-18T09:28:48;0.70;1.00
15003;DHT22;7597;53.590;10.020;2022-12-18T09:31:15;1.20;1.00
15003;DHT22;7597;53.590;10.020;2022-12-18T09:33:41;1.50;1.00
15003;DHT22;7597;53.590;10.020;2022-12-18T09:36:14;1.40;1.00
15003;DHT22;7597;53.590;10.020;2022-12-18T09:38:35;1.50;1.00
15003;DHT22;7597;53.590;10.020;2022-12-18T09:41:15;1.30;1.00
15003;DHT22;7597;53.590;10.020;2022-12-18T09:43:39;1.50;1.00
15003;DHT22;7597;53.590;10.020;2022-12-18T09:46:05;1.50;1.00
15003;DHT22;7597;53.590;10.020;2022-12-18T09:48:32;1.60;1.00
15003;DHT22;7597;53.590;10.020;2022-12-18T09:51:00;1.70;1.00
15003;DHT22;7597;53.590;10.020;2022-12-18T09:53:27;2.60;1.00
15003;DHT22;7597;53.590;10.020;2022-12-18T09:55:51;2.80;1.00
15003;DHT22;7597;53.590;10.020;2022-12-18T09:58:29;2.30;1.00
15003;DHT22;7597;53.590;10.020;2022-12-18T10:00:54;2.40;1.00
15003;DHT22;7597;53.590;10.020;2022-12-18T10:03:21;2.10;1.00
15003;DHT22;7597;53.590;10.020;2022-12-18T10:05:55;1.60;1.00
15003;DHT22;7597;53.590;10.020;2022-12-18T10:08:29;2.00;1.00
15003;DHT22;7597;53.590;10.020;2022-12-18T10:10:53;1.60;1.00
15003;DHT22;7597;53.590;10.020;2022-12-18T10:13:27;1.80;1.00
15003;DHT22;7597;53.590;10.020;2022-12-18T10:15:54;1.80;1.00
15003;DHT22;7597;53.590;10.020;2022-12-18T10:18:25;2.10;1.00
15003;DHT22;7597;53.590;10.020;2022-12-18T10:20:53;1.70;1.00
15003;DHT22;7597;53.590;10.020;2022-12-18T10:23:43;1.90;1.00
15003;DHT22;7597;53.590;10.020;2022-12-18T10:26:07;1.70;1.00
15003;DHT22;7597;53.590;10.020;2022-12-18T10:28:34;1.10;1.00
15003;DHT22;7597;53.590;10.020;2022-12-18T10:30:59;0.50;1.00
15003;DHT22;7597;53.590;10.020;2022-12-18T10:33:30;1.70;1.00
15003;DHT22;7597;53.590;10.020;2022-12-18T10:35:55;1.80;1.00
15003;DHT22;7597;53.590;10.020;2022-12-18T10:38:27;1.50;1.00
15003;DHT22;7597;53.590;10.020;2022-12-18T10:43:40;1.70;1.00
15003;DHT22;7597;53.590;10.020;2022-12-18T10:46:17;2.00;1.00
15003;DHT22;7597;53.590;10.020;2022-12-18T10:48:51;2.30;1.00
15003;DHT22;7597;53.590;10.020;2022-12-18T10:51:24;1.70;1.00
15003;DHT22;7597;53.590;10.020;2022-12-18T10:53:53;1.30;1.00
15003;DHT22;7597;53.590;10.020;2022-12-18T10:56:19;1.80;1.00
15003;DHT22;7597;53.590;10.020;2022-12-18T10:58:46;2.10;1.00
15003;DHT22;7597;53.590;10.020;2022-12-18T11:01:15;2.90;1.00
15003;DHT22;7597;53.590;10.020;2022-12-18T11:03:45;2.90;1.00
15003;DHT22;7597;53.590;10.020;2022-12-18T11:06:13;2.10;1.00
15003;DHT22;7597;53.590;10.020;2022-12-18T11:08:38;1.80;1.00
15003;DHT22;7597;53.590;10.020;2022-12-18T11:11:07;1.80;1.00
15003;DHT22;7597;53.590;10.020;2022-12-18T11:13:33;2.30;1.00
15003;DHT22;7597;53.590;10.020;2022-12-18T11:16:00;2.30;1.00
15003;DHT22;7597;53.590;10.020;2022-12-18T11:18:30;2.90;1.00
15003;DHT22;7597;53.590;10.020;2022-12-18T11:23:29;3.20;1.00
15003;DHT22;7597;53.590;10.020;2022-12-18T11:25:59;3.60;1.00
15003;DHT22;7597;53.590;10.020;2022-12-18T11:28:29;3.80;1.00
15003;DHT22;7597;53.590;10.020;2022-12-18T11:33:32;1.60;1.00
15003;DHT22;7597;53.590;10.020;2022-12-18T11:35:59;1.40;1.00
15003;DHT22;7597;53.590;10.020;2022-12-18T11:38:27;0.40;1.00
15003;DHT22;7597;53.590;10.020;2022-12-18T11:41:00;0.40;1.00
15003;DHT22;7597;53.590;10.020;2022-12-18T11:43:29;0.30;1.00
15003;DHT22;7597;53.590;10.020;2022-12-18T11:45:59;0.10;1.00
15003;DHT22;7597;53.590;10.020;2022-12-18T11:48:30;-0.10;1.00
15003;DHT22;7597;53.590;10.020;2022-12-18T11:50:56;0.20;1.00
15003;DHT22;7597;53.590;10.020;2022-12-18T11:53:23;0.90;1.00
15003;DHT22;7597;53.590;10.020;2022-12-18T11:56:02;1.70;1.00
15003;DHT22;7597;53.590;10.020;2022-12-18T11:58:47;2.10;1.00
15003;DHT22;7597;53.590;10.020;2022-12-18T12:01:23;2.40;1.00
15003;DHT22;7597;53.590;10.020;2022-12-18T12:15:13;0.70;1.00
15003;DHT22;7597;53.590;10.020;2022-12-18T12:17:42;0.10;1.00
15003;DHT22;7597;53.590;10.020;2022-12-18T12:20:14;0.10;1.00
15003;DHT22;7597;53.590;10.020;2022-12-18T12:22:54;-0.30;1.00
15003;DHT22;7597;53.590;10.020;2022-12-18T12:25:34;-0.60;1.00
15003;DHT22;7597;53.590;10.020;2022-12-18T12:30:50;-1.00;1.00
15003;DHT22;7597;53.590;10.020;2022-12-18T12:33:32;-1.10;1.00
15003;DHT22;7597;53.590;10.020;2022-12-18T12:36:07;-1.10;1.00
15003;DHT22;7597;53.590;10.020;2022-12-18T12:38:36;-1.20;1.00
15003;DHT22;7597;53.590;10.020;2022-12-18T12:41:05;-1.30;1.00
15003;DHT22;7597;53.590;10.020;2022-12-18T12:43:34;-1.30;1.00
15003;DHT22;7597;53.590;10.020;2022-12-18T12:46:03;-1.40;1.00
15003;DHT22;7597;53.590;10.020;2022-12-18T12:48:35;-1.50;1.00
15003;DHT22;7597;53.590;10.020;2022-12-18T12:51:01;-1.30;1.00
15003;DHT22;7597;53.590;10.020;2022-12-18T12:53:29;-1.30;1.00
15003;DHT22;7597;53.590;10.020;2022-12-18T12:55:55;-1.40;1.00
15003;DHT22;7597;53.590;10.020;2022-12-18T12:58:41;-1.20;1.00
15003;DHT22;7597;53.590;10.020;2022-12-18T13:01:09;-1.20;1.00
15003;DHT22;7597;53.590;10.020;2022-12-18T13:03:43;-1.30;1.00
15003;DHT22;7597;53.590;10.020;2022-12-18T13:06:16;-1.30;1.00
15003;DHT22;7597;53.590;10.020;2022-12-18T13:08:55;-1.30;1.00
15003;DHT22;7597;53.590;10.020;2022-12-18T13:11:29;-1.40;1.00
15003;DHT22;7597;53.590;10.020;2022-12-18T13:14:00;-1.40;1.00
15003;DHT22;7597;53.590;10.020;2022-12-18T13:16:27;-1.30;1.00
15003;DHT22;7597;53.590;10.020;2022-12-18T13:18:55;-1.10;1.00
15003;DHT22;7597;53.590;10.020;2022-12-18T13:21:22;-1.10;1.00
15003;DHT22;7597;53.590;10.020;2022-12-18T13:23:47;-1.10;1.00
15003;DHT22;7597;53.590;10.020;2022-12-18T13:26:31;-1.30;1.00
15003;DHT22;7597;53.590;10.020;2022-12-18T13:28:58;-1.30;1.00
15003;DHT22;7597;53.590;10.020;2022-12-18T13:34:28;-1.40;1.00
15003;DHT22;7597;53.590;10.020;2022-12-18T13:36:54;-1.60;1.00
15003;DHT22;7597;53.590;10.020;2022-12-18T13:39:23;-1.70;1.00
15003;DHT22;7597;53.590;10.020;2022-12-18T13:41:49;-1.80;1.00
15003;DHT22;7597;53.590;10.020;2022-12-18T13:44:24;-1.80;1.00
15003;DHT22;7597;53.590;10.020;2022-12-18T13:46:49;-1.90;1.00
15003;DHT22;7597;53.590;10.020;2022-12-18T13:49:21;-1.90;1.00
15003;DHT22;7597;53.590;10.020;2022-12-18T13:51:48;-2.00;1.00
15003;DHT22;7597;53.590;10.020;2022-12-18T13:54:24;-2.20;1.00
15003;DHT22;7597;53.590;10.020;2022-12-18T13:56:48;-2.20;1.00
15003;DHT22;7597;53.590;10.020;2022-12-18T13:59:20;-2.20;1.00
15003;DHT22;7597;53.590;10.020;2022-12-18T14:01:47;-2.20;1.00
15003;DHT22;7597;53.590;10.020;2022-12-18T14:04:28;-2.30;1.00
15003;DHT22;7597;53.590;10.020;2022-12-18T14:06:57;-2.00;1.00
15003;DHT22;7597;53.590;10.020;2022-12-18T14:09:27;-2.40;1.00
15003;DHT22;7597;53.590;10.020;2022-12-18T14:11:50;-2.40;1.00
15003;DHT22;7597;53.590;10.020;2022-12-18T14:14:17;-2.50;1.00
15003;DHT22;7597;53.590;10.020;2022-12-18T14:16:43;-2.50;1.00
15003;DHT22;7597;53.590;10.020;2022-12-18T14:19:12;-2.50;1.00
15003;DHT22;7597;53.590;10.020;2022-12-18T14:21:36;-2.60;1.00
15003;DHT22;7597;53.590;10.020;2022-12-18T14:24:05;-2.60;1.00
15003;DHT22;7597;53.590;10.020;2022-12-18T14:26:31;-2.70;1.00
15003;DHT22;7597;53.590;10.020;2022-12-18T14:29:00;-2.70;1.00
15003;DHT22;7597;53.590;10.020;2022-12-18T14:31:26;-2.70;1.00
15003;DHT22;7597;53.590;10.020;2022-12-18T14:33:52;-2.70;1.00
15003;DHT22;7597;53.590;10.020;2022-12-18T14:36:21;-2.80;1.00
15003;DHT22;7597;53.590;10.020;2022-12-18T14:38:49;-2.30;1.00
15003;DHT22;7597;53.590;10.020;2022-12-18T14:41:15;-2.80;1.00
15003;DHT22;7597;53.590;10.020;2022-12-18T14:43:43;-2.40;1.00
15003;DHT22;7597;53.590;10.020;2022-12-18T14:48:47;-2.90;1.00
15003;DHT22;7597;53.590;10.020;2022-12-18T14:51:16;-2.80;1.00
15003;DHT22;7597;53.590;10.020;2022-12-18T14:53:43;-2.90;1.00
15003;DHT22;7597;53.590;10.020;2022-12-18T14:56:17;-2.90;1.00
15003;DHT22;7597;53.590;10.020;2022-12-18T14:58:48;-2.90;1.00
15003;DHT22;7597;53.590;10.020;2022-12-18T15:01:24;-2.90;1.00
15003;DHT22;7597;53.590;10.020;2022-12-18T15:03:50;-2.90;1.00
15003;DHT22;7597;53.590;10.020;2022-12-18T15:06:18;-3.00;1.00
15003;DHT22;7597;53.590;10.020;2022-12-18T15:08:44;-3.00;1.00
15003;DHT22;7597;53.590;10.020;2022-12-18T15:13:49;-3.00;1.00
15003;DHT22;7597;53.590;10.020;2022-12-18T15:16:15;-2.50;1.00
15003;DHT22;7597;53.590;10.020;2022-12-18T15:18:43;-3.00;1.00
15003;DHT22;7597;53.590;10.020;2022-12-18T15:21:10;-3.10;1.00
15003;DHT22;7597;53.590;10.020;2022-12-18T15:23:45;-3.10;1.00
15003;DHT22;7597;53.590;10.020;2022-12-18T15:26:05;-3.10;1.00
15003;DHT22;7597;53.590;10.020;2022-12-18T15:28:35;-3.10;1.00
15003;DHT22;7597;53.590;10.020;2022-12-18T15:31:05;-3.10;1.00
15003;DHT22;7597;53.590;10.020;2022-12-18T15:33:32;-3.10;1.00
15003;DHT22;7597;53.590;10.020;2022-12-18T15:36:01;-3.20;1.00
15003;DHT22;7597;53.590;10.020;2022-12-18T15:38:27;-3.10;1.00
15003;DHT22;7597;53.590;10.020;2022-12-18T15:40:54;-3.20;1.00
15003;DHT22;7597;53.590;10.020;2022-12-18T15:43:21;-3.20;1.00
15003;DHT22;7597;53.590;10.020;2022-12-18T15:45:53;-3.10;1.00
15003;DHT22;7597;53.590;10.020;2022-12-18T15:48:21;-3.10;1.00
15003;DHT22;7597;53.590;10.020;2022-12-18T15:50:48;-3.00;1.00
15003;DHT22;7597;53.590;10.020;2022-12-18T15:53:14;-3.00;1.00
15003;DHT22;7597;53.590;10.020;2022-12-18T15:55:40;-3.00;1.00
15003;DHT22;7597;53.590;10.020;2022-12-18T15:58:13;-2.80;1.00
15003;DHT22;7597;53.590;10.020;2022-12-18T16:00:39;-3.00;1.00
15003;DHT22;7597;53.590;10.020;2022-12-18T16:03:06;-3.00;1.00
15003;DHT22;7597;53.590;10.020;2022-12-18T16:05:33;-3.00;1.00
15003;DHT22;7597;53.590;10.020;2022-12-18T16:07:59;-3.00;1.00
15003;DHT22;7597;53.590;10.020;2022-12-18T16:10:27;-2.80;1.00
15003;DHT22;7597;53.590;10.020;2022-12-18T16:12:53;-3.00;1.00
15003;DHT22;7597;53.590;10.020;2022-12-18T16:15:20;-3.00;1.00
15003;DHT22;7597;53.590;10.020;2022-12-18T16:17:47;-2.80;1.00
15003;DHT22;7597;53.590;10.020;2022-12-18T16:20:16;-2.90;1.00
15003;DHT22;7597;53.590;10.020;2022-12-18T16:22:42;-2.50;1.00
15003;DHT22;7597;53.590;10.020;2022-12-18T16:25:11;-2.90;1.00
15003;DHT22;7597;53.590;10.020;2022-12-18T16:27:35;-2.90;1.00
15003;DHT22;7597;53.590;10.020;2022-12-18T16:30:02;-2.90;1.00
15003;DHT22;7597;53.590;10.020;2022-12-18T16:32:29;-2.90;1.00